sensor_id;sensor_type;location;lat;lon;timestamp;temperature;humidity
29363;DHT22;16349;53.672;10.014;2023-04-03T00:00:50;0.70;99.90
29363;DHT22;16349;53.672;10.014;2023-04-03T00:03:17;0.70;99.90
29363;DHT22;16349;53.672;10.014;2023-04-03T00:05:44;0.70;99.90
29363;DHT22;16349;53.672;10.014;2023-04-03T00:08:12;0.80;99.90
29363;DHT22;16349;53.672;10.014;2023-04-03T00:10:40;0.70;99.90
29363;DHT22;16349;53.672;10.014;2023-04-03T00:13:07;0.70;99.90
29363;DHT22;16349;53.672;10.014;2023-04-03T00:15:35;0.70;99.90
29363;DHT22;16349;53.672;10.014;2023-04-03T00:18:03;0.60;99.90
29363;DHT22;16349;53.672;10.014;2023-04-03T00:20:31;0.70;99.90
29363;DHT22;16349;53.672;10.014;2023-04-03T00:22:58;0.70;99.90
29363;DHT22;16349;53.672;10.014;2023-04-03T00:25:27;0.60;99.90
29363;DHT22;16349;53.672;10.014;2023-04-03T00:27:55;0.70;99.90
29363;DHT22;16349;53.672;10.014;2023-04-03T00:30:22;0.70;99.90
29363;DHT22;16349;53.672;10.014;2023-04-03T00:32:50;0.50;99.90
29363;DHT22;16349;53.672;10.014;2023-04-03T00:35:19;0.60;99.90
29363;DHT22;16349;53.672;10.014;2023-04-03T00:37:47;0.60;99.90
29363;DHT22;16349;53.672;10.014;2023-04-03T00:40:15;0.60;99.90
29363;DHT22;16349;53.672;10.014;2023-04-03T00:42:45;0.50;99.90
29363;DHT22;16349;53.672;10.014;2023-04-03T00:45:29;0.50;99.90
29363;DHT22;16349;53.672;10.014;2023-04-03T00:47:57;0.50;99.90
29363;DHT22;16349;53.672;10.014;2023-04-03T00:50:26;0.60;99.90
29363;DHT22;16349;53.672;10.014;2023-04-03T00:52:54;0.50;99.90
29363;DHT22;16349;53.672;10.014;2023-04-03T00:55:22;0.60;99.90
29363;DHT22;16349;53.672;10.014;2023-04-03T00:57:52;0.40;99.90
29363;DHT22;16349;53.672;10.014;2023-04-03T01:00:20;0.50;99.90
29363;DHT22;16349;53.672;10.014;2023-04-03T01:02:48;0.40;99.90
29363;DHT22;16349;53.672;10.014;2023-04-03T01:05:16;0.30;99.90
29363;DHT22;16349;53.672;10.014;2023-04-03T01:07:45;0.50;99.90
29363;DHT22;16349;53.672;10.014;2023-04-03T01:10:34;0.40;99.90
29363;DHT22;16349;53.672;10.014;2023-04-03T01:13:18;0.30;99.90
29363;DHT22;16349;53.672;10.014;2023-04-03T01:15:46;0.50;99.90
29363;DHT22;16349;53.672;10.014;2023-04-03T01:18:13;0.40;99.90
29363;DHT22;16349;53.672;10.014;2023-04-03T01:23:57;0.40;99.90
29363;DHT22;16349;53.672;10.014;2023-04-03T01:26:25;0.30;99.90
29363;DHT22;16349;53.672;10.014;2023-04-03T01:28:55;0.30;99.90
29363;DHT22;16349;53.672;10.014;2023-04-03T01:31:25;0.20;99.90
29363;DHT22;16349;53.672;10.014;2023-04-03T01:33:56;0.20;99.90
29363;DHT22;16349;53.672;10.014;2023-04-03T01:36:25;0.30;99.90
29363;DHT22;16349;53.672;10.014;2023-04-03T01:38:54;0.30;99.90
29363;DHT22;16349;53.672;10.014;2023-04-03T01:41:22;0.30;99.90
29363;DHT22;16349;53.672;10.014;2023-04-03T01:43:51;0.30;99.90
29363;DHT22;16349;53.672;10.014;2023-04-03T01:46:19;0.20;99.90
29363;DHT22;16349;53.672;10.014;2023-04-03T01:48:46;0.20;99.90
29363;DHT22;16349;53.672;10.014;2023-04-03T01:51:14;0.20;99.90
29363;DHT22;16349;53.672;10.014;2023-04-03T01:53:41;0.20;99.90
29363;DHT22;16349;53.672;10.014;2023-04-03T01:56:08;-0.10;99.90
29363;DHT22;16349;53.672;10.014;2023-04-03T01:58:35;0.30;99.90
29363;DHT22;16349;53.672;10.014;2023-04-03T02:01:03;0.10;99.90
29363;DHT22;16349;53.672;10.014;2023-04-03T02:03:30;-0.10;99.90
29363;DHT22;16349;53.672;10.014;2023-04-03T02:05:58;0.00;99.90
29363;DHT22;16349;53.672;10.014;2023-04-03T02:08:27;0.20;99.90
29363;DHT22;16349;53.672;10.014;2023-04-03T02:10:54;-0.10;99.90
29363;DHT22;16349;53.672;10.014;2023-04-03T02:13:20;0.30;99.90
29363;DHT22;16349;53.672;10.014;2023-04-03T02:15:48;0.10;99.90
29363;DHT22;16349;53.672;10.014;2023-04-03T02:18:16;-0.10;99.90
29363;DHT22;16349;53.672;10.014;2023-04-03T02:20:43;-0.20;99.90
29363;DHT22;16349;53.672;10.014;2023-04-03T02:23:10;-0.20;99.90
29363;DHT22;16349;53.672;10.014;2023-04-03T02:25:38;-0.10;99.90
29363;DHT22;16349;53.672;10.014;2023-04-03T02:28:05;-0.20;99.90
29363;DHT22;16349;53.672;10.014;2023-04-03T02:30:32;-0.20;99.90
29363;DHT22;16349;53.672;10.014;2023-04-03T02:32:59;-0.10;99.90
29363;DHT22;16349;53.672;10.014;2023-04-03T02:35:26;-0.20;99.90
29363;DHT22;16349;53.672;10.014;2023-04-03T02:37:56;0.10;99.90
29363;DHT22;16349;53.672;10.014;2023-04-03T02:40:23;0.10;99.90
29363;DHT22;16349;53.672;10.014;2023-04-03T02:42:52;0.00;99.90
29363;DHT22;16349;53.672;10.014;2023-04-03T02:45:20;-0.20;99.90
29363;DHT22;16349;53.672;10.014;2023-04-03T02:47:48;-0.20;99.90
29363;DHT22;16349;53.672;10.014;2023-04-03T02:50:15;-0.10;99.90
29363;DHT22;16349;53.672;10.014;2023-04-03T02:52:42;0.00;99.90
29363;DHT22;16349;53.672;10.014;2023-04-03T02:55:13;-0.10;99.90
29363;DHT22;16349;53.672;10.014;2023-04-03T02:57:42;0.00;99.90
29363;DHT22;16349;53.672;10.014;2023-04-03T03:00:11;-0.10;99.90
29363;DHT22;16349;53.672;10.014;2023-04-03T03:02:38;-0.10;99.90
29363;DHT22;16349;53.672;10.014;2023-04-03T03:05:06;-0.10;99.90
29363;DHT22;16349;53.672;10.014;2023-04-03T03:07:33;-0.10;99.90
29363;DHT22;16349;53.672;10.014;2023-04-03T03:10:01;-0.10;99.90
29363;DHT22;16349;53.672;10.014;2023-04-03T03:12:28;-0.10;99.90
29363;DHT22;16349;53.672;10.014;2023-04-03T03:14:55;-0.10;99.90
29363;DHT22;16349;53.672;10.014;2023-04-03T03:17:45;-0.10;99.90
29363;DHT22;16349;53.672;10.014;2023-04-03T03:20:13;-0.10;99.90
29363;DHT22;16349;53.672;10.014;2023-04-03T03:22:40;-0.20;99.90
29363;DHT22;16349;53.672;10.014;2023-04-03T03:25:08;-0.20;99.90
29363;DHT22;16349;53.672;10.014;2023-04-03T03:27:36;-0.10;99.90
29363;DHT22;16349;53.672;10.014;2023-04-03T03:30:04;-0.20;99.90
29363;DHT22;16349;53.672;10.014;2023-04-03T03:32:32;-0.10;99.90
29363;DHT22;16349;53.672;10.014;2023-04-03T03:35:00;-0.20;99.90
29363;DHT22;16349;53.672;10.014;2023-04-03T03:37:27;-0.20;99.90
29363;DHT22;16349;53.672;10.014;2023-04-03T03:39:53;-0.20;99.90
29363;DHT22;16349;53.672;10.014;2023-04-03T03:42:21;-0.20;99.90
29363;DHT22;16349;53.672;10.014;2023-04-03T03:44:49;-0.30;99.90
29363;DHT22;16349;53.672;10.014;2023-04-03T03:47:18;-0.30;99.90
29363;DHT22;16349;53.672;10.014;2023-04-03T03:49:45;-0.10;99.90
29363;DHT22;16349;53.672;10.014;2023-04-03T03:52:15;-0.40;99.90
29363;DHT22;16349;53.672;10.014;2023-04-03T03:54:43;-0.30;99.90
29363;DHT22;16349;53.672;10.014;2023-04-03T03:57:10;-0.30;99.90
29363;DHT22;16349;53.672;10.014;2023-04-03T03:59:37;-0.30;99.90
29363;DHT22;16349;53.672;10.014;2023-04-03T04:02:06;-0.30;99.90
29363;DHT22;16349;53.672;10.014;2023-04-03T04:04:33;-0.40;99.90
29363;DHT22;16349;53.672;10.014;2023-04-03T04:07:01;-0.40;99.90
29363;DHT22;16349;53.672;10.014;2023-04-03T04:09:30;-0.40;99.90
29363;DHT22;16349;53.672;10.014;2023-04-03T04:12:20;-0.40;99.90
29363;DHT22;16349;53.672;10.014;2023-04-03T04:14:48;-0.30;99.90
29363;DHT22;16349;53.672;10.014;2023-04-03T04:17:16;-0.30;99.90
29363;DHT22;16349;53.672;10.014;2023-04-03T04:19:43;-0.60;99.90
29363;DHT22;16349;53.672;10.014;2023-04-03T04:22:31;-0.40;99.90
29363;DHT22;16349;53.672;10.014;2023-04-03T04:25:00;-0.60;99.90
29363;DHT22;16349;53.672;10.014;2023-04-03T04:27:28;-0.40;99.90
29363;DHT22;16349;53.672;10.014;2023-04-03T04:29:55;-0.40;99.90
29363;DHT22;16349;53.672;10.014;2023-04-03T04:32:22;-0.60;99.90
29363;DHT22;16349;53.672;10.014;2023-04-03T04:34:49;-0.10;99.90
29363;DHT22;16349;53.672;10.014;2023-04-03T04:37:17;-0.60;99.90
29363;DHT22;16349;53.672;10.014;2023-04-03T04:39:46;-0.50;99.90
29363;DHT22;16349;53.672;10.014;2023-04-03T04:42:14;-0.50;99.90
29363;DHT22;16349;53.672;10.014;2023-04-03T04:44:41;-0.50;99.90
29363;DHT22;16349;53.672;10.014;2023-04-03T04:47:08;-0.50;99.90
29363;DHT22;16349;53.672;10.014;2023-04-03T04:49:34;-0.50;99.90
29363;DHT22;16349;53.672;10.014;2023-04-03T04:52:02;-0.50;99.90
29363;DHT22;16349;53.672;10.014;2023-04-03T04:54:31;-0.50;99.90
29363;DHT22;16349;53.672;10.014;2023-04-03T04:56:57;-0.50;99.90
29363;DHT22;16349;53.672;10.014;2023-04-03T04:59:27;-0.50;99.90
29363;DHT22;16349;53.672;10.014;2023-04-03T05:01:57;-0.50;99.90
29363;DHT22;16349;53.672;10.014;2023-04-03T05:04:25;-0.50;99.90
29363;DHT22;16349;53.672;10.014;2023-04-03T05:06:58;-0.50;99.90
29363;DHT22;16349;53.672;10.014;2023-04-03T05:09:27;-0.50;99.90
29363;DHT22;16349;53.672;10.014;2023-04-03T05:11:55;-0.50;99.90
29363;DHT22;16349;53.672;10.014;2023-04-03T05:14:27;-0.50;99.90
29363;DHT22;16349;53.672;10.014;2023-04-03T05:16:58;-0.50;99.90
29363;DHT22;16349;53.672;10.014;2023-04-03T05:19:28;-0.50;99.90
29363;DHT22;16349;53.672;10.014;2023-04-03T05:21:57;-0.50;99.90
29363;DHT22;16349;53.672;10.014;2023-04-03T05:24:24;-0.50;99.90
29363;DHT22;16349;53.672;10.014;2023-04-03T05:26:52;-0.40;99.90
29363;DHT22;16349;53.672;10.014;2023-04-03T05:29:20;-0.40;99.90
29363;DHT22;16349;53.672;10.014;2023-04-03T05:31:50;-0.50;99.90
29363;DHT22;16349;53.672;10.014;2023-04-03T05:34:18;-0.40;99.90
29363;DHT22;16349;53.672;10.014;2023-04-03T05:36:47;-0.40;99.90
29363;DHT22;16349;53.672;10.014;2023-04-03T05:39:15;-0.40;99.90
29363;DHT22;16349;53.672;10.014;2023-04-03T05:41:44;-0.30;99.90
29363;DHT22;16349;53.672;10.014;2023-04-03T05:44:11;-0.30;99.90
29363;DHT22;16349;53.672;10.014;2023-04-03T05:46:41;-0.30;99.90
29363;DHT22;16349;53.672;10.014;2023-04-03T05:49:10;-0.20;99.90
29363;DHT22;16349;53.672;10.014;2023-04-03T05:51:38;-0.20;99.90
29363;DHT22;16349;53.672;10.014;2023-04-03T05:54:27;-0.20;99.90
29363;DHT22;16349;53.672;10.014;2023-04-03T05:57:07;-0.10;99.90
29363;DHT22;16349;53.672;10.014;2023-04-03T05:59:34;0.00;99.90
29363;DHT22;16349;53.672;10.014;2023-04-03T06:02:01;0.00;99.90
29363;DHT22;16349;53.672;10.014;2023-04-03T06:04:29;0.10;99.90
29363;DHT22;16349;53.672;10.014;2023-04-03T06:06:57;0.10;99.90
29363;DHT22;16349;53.672;10.014;2023-04-03T06:09:27;0.20;99.90
29363;DHT22;16349;53.672;10.014;2023-04-03T06:11:56;0.20;99.90
29363;DHT22;16349;53.672;10.014;2023-04-03T06:14:24;0.30;99.90
29363;DHT22;16349;53.672;10.014;2023-04-03T06:16:51;0.40;99.90
29363;DHT22;16349;53.672;10.014;2023-04-03T06:19:19;0.50;99.90
29363;DHT22;16349;53.672;10.014;2023-04-03T06:21:51;0.50;99.90
29363;DHT22;16349;53.672;10.014;2023-04-03T06:24:19;0.60;99.90
29363;DHT22;16349;53.672;10.014;2023-04-03T06:26:47;0.70;99.90
29363;DHT22;16349;53.672;10.014;2023-04-03T06:29:16;0.80;99.90
29363;DHT22;16349;53.672;10.014;2023-04-03T06:31:44;0.90;99.90
29363;DHT22;16349;53.672;10.014;2023-04-03T06:34:11;1.10;99.90
29363;DHT22;16349;53.672;10.014;2023-04-03T06:36:39;1.20;99.90
29363;DHT22;16349;53.672;10.014;2023-04-03T06:39:09;1.40;99.90
29363;DHT22;16349;53.672;10.014;2023-04-03T06:41:39;1.50;99.90
29363;DHT22;16349;53.672;10.014;2023-04-03T06:44:06;1.60;99.90
29363;DHT22;16349;53.672;10.014;2023-04-03T06:46:37;1.70;99.90
29363;DHT22;16349;53.672;10.014;2023-04-03T06:49:04;1.80;99.90
29363;DHT22;16349;53.672;10.014;2023-04-03T06:51:33;2.00;99.90
29363;DHT22;16349;53.672;10.014;2023-04-03T06:54:01;2.10;99.90
29363;DHT22;16349;53.672;10.014;2023-04-03T06:56:31;2.20;99.90
29363;DHT22;16349;53.672;10.014;2023-04-03T06:58:59;2.30;99.90
29363;DHT22;16349;53.672;10.014;2023-04-03T07:01:48;2.50;99.90
29363;DHT22;16349;53.672;10.014;2023-04-03T07:04:16;2.60;99.90
29363;DHT22;16349;53.672;10.014;2023-04-03T07:06:42;2.70;99.90
29363;DHT22;16349;53.672;10.014;2023-04-03T07:09:10;2.90;99.90
29363;DHT22;16349;53.672;10.014;2023-04-03T07:11:41;3.00;99.90
29363;DHT22;16349;53.672;10.014;2023-04-03T07:14:08;3.20;99.90
29363;DHT22;16349;53.672;10.014;2023-04-03T07:16:35;3.20;99.90
29363;DHT22;16349;53.672;10.014;2023-04-03T07:19:02;3.30;99.90
29363;DHT22;16349;53.672;10.014;2023-04-03T07:21:30;3.40;99.90
29363;DHT22;16349;53.672;10.014;2023-04-03T07:23:57;3.40;99.90
29363;DHT22;16349;53.672;10.014;2023-04-03T07:26:50;3.50;99.90
29363;DHT22;16349;53.672;10.014;2023-04-03T07:29:17;3.70;99.90
29363;DHT22;16349;53.672;10.014;2023-04-03T07:31:45;3.80;99.90
29363;DHT22;16349;53.672;10.014;2023-04-03T07:34:12;3.90;99.90
29363;DHT22;16349;53.672;10.014;2023-04-03T07:36:39;4.00;99.90
29363;DHT22;16349;53.672;10.014;2023-04-03T07:39:06;4.10;99.90
29363;DHT22;16349;53.672;10.014;2023-04-03T07:41:34;4.20;99.90
29363;DHT22;16349;53.672;10.014;2023-04-03T07:44:20;4.20;99.90
29363;DHT22;16349;53.672;10.014;2023-04-03T07:46:49;4.30;99.90
29363;DHT22;16349;53.672;10.014;2023-04-03T07:49:16;4.40;99.90
29363;DHT22;16349;53.672;10.014;2023-04-03T07:51:43;4.50;99.90
29363;DHT22;16349;53.672;10.014;2023-04-03T07:54:32;4.60;99.90
29363;DHT22;16349;53.672;10.014;2023-04-03T07:56:59;4.80;99.90
29363;DHT22;16349;53.672;10.014;2023-04-03T07:59:28;4.90;99.90
29363;DHT22;16349;53.672;10.014;2023-04-03T08:01:57;5.00;99.90
29363;DHT22;16349;53.672;10.014;2023-04-03T08:04:24;5.10;99.90
29363;DHT22;16349;53.672;10.014;2023-04-03T08:06:51;5.10;99.90
29363;DHT22;16349;53.672;10.014;2023-04-03T08:09:18;5.10;99.90
29363;DHT22;16349;53.672;10.014;2023-04-03T08:11:46;5.10;99.90
29363;DHT22;16349;53.672;10.014;2023-04-03T08:14:13;5.30;99.90
29363;DHT22;16349;53.672;10.014;2023-04-03T08:16:45;5.40;99.90
29363;DHT22;16349;53.672;10.014;2023-04-03T08:19:13;5.50;99.90
29363;DHT22;16349;53.672;10.014;2023-04-03T08:21:41;5.50;99.90
29363;DHT22;16349;53.672;10.014;2023-04-03T08:24:08;5.60;99.90
29363;DHT22;16349;53.672;10.014;2023-04-03T08:26:36;5.60;99.90
29363;DHT22;16349;53.672;10.014;2023-04-03T08:29:04;5.60;99.90
29363;DHT22;16349;53.672;10.014;2023-04-03T08:31:51;5.70;99.90
29363;DHT22;16349;53.672;10.014;2023-04-03T08:34:19;5.80;99.90
29363;DHT22;16349;53.672;10.014;2023-04-03T08:36:47;5.80;99.90
29363;DHT22;16349;53.672;10.014;2023-04-03T08:39:14;5.80;99.90
29363;DHT22;16349;53.672;10.014;2023-04-03T08:41:43;5.90;99.90
29363;DHT22;16349;53.672;10.014;2023-04-03T08:44:18;5.70;99.90
29363;DHT22;16349;53.672;10.014;2023-04-03T08:47:20;5.60;99.90
29363;DHT22;16349;53.672;10.014;2023-04-03T08:49:52;5.70;99.90
29363;DHT22;16349;53.672;10.014;2023-04-03T08:52:24;5.80;99.90
29363;DHT22;16349;53.672;10.014;2023-04-03T08:54:57;5.90;99.90
29363;DHT22;16349;53.672;10.014;2023-04-03T08:57:29;6.10;99.90
29363;DHT22;16349;53.672;10.014;2023-04-03T08:59:58;6.20;99.90
29363;DHT22;16349;53.672;10.014;2023-04-03T09:02:33;6.30;99.90
29363;DHT22;16349;53.672;10.014;2023-04-03T09:05:02;6.40;99.90
29363;DHT22;16349;53.672;10.014;2023-04-03T09:07:38;6.30;99.90
29363;DHT22;16349;53.672;10.014;2023-04-03T09:10:08;6.10;99.90
29363;DHT22;16349;53.672;10.014;2023-04-03T09:12:38;6.10;99.90
29363;DHT22;16349;53.672;10.014;2023-04-03T09:15:11;6.10;99.90
29363;DHT22;16349;53.672;10.014;2023-04-03T09:17:51;6.20;99.90
29363;DHT22;16349;53.672;10.014;2023-04-03T09:20:22;6.30;99.90
29363;DHT22;16349;53.672;10.014;2023-04-03T09:22:51;6.10;99.90
29363;DHT22;16349;53.672;10.014;2023-04-03T09:25:22;6.10;99.90
29363;DHT22;16349;53.672;10.014;2023-04-03T09:27:50;6.20;99.90
29363;DHT22;16349;53.672;10.014;2023-04-03T09:30:19;6.40;99.90
29363;DHT22;16349;53.672;10.014;2023-04-03T09:32:50;6.50;99.90
29363;DHT22;16349;53.672;10.014;2023-04-03T09:35:21;6.40;99.90
29363;DHT22;16349;53.672;10.014;2023-04-03T09:37:50;6.20;99.50
29363;DHT22;16349;53.672;10.014;2023-04-03T09:40:34;6.20;99.90
29363;DHT22;16349;53.672;10.014;2023-04-03T09:43:20;6.30;99.30
29363;DHT22;16349;53.672;10.014;2023-04-03T09:45:50;6.20;99.90
29363;DHT22;16349;53.672;10.014;2023-04-03T09:48:20;6.30;99.90
29363;DHT22;16349;53.672;10.014;2023-04-03T09:50:55;6.50;99.90
29363;DHT22;16349;53.672;10.014;2023-04-03T09:53:29;6.50;99.90
29363;DHT22;16349;53.672;10.014;2023-04-03T09:55:57;6.60;99.60
29363;DHT22;16349;53.672;10.014;2023-04-03T09:58:27;6.50;99.90
29363;DHT22;16349;53.672;10.014;2023-04-03T10:00:55;6.60;99.90
29363;DHT22;16349;53.672;10.014;2023-04-03T10:03:27;6.60;99.40
29363;DHT22;16349;53.672;10.014;2023-04-03T10:06:23;6.60;99.00
29363;DHT22;16349;53.672;10.014;2023-04-03T10:09:17;6.60;99.40
29363;DHT22;16349;53.672;10.014;2023-04-03T10:12:00;6.60;97.50
29363;DHT22;16349;53.672;10.014;2023-04-03T10:14:28;6.60;97.00
29363;DHT22;16349;53.672;10.014;2023-04-03T10:17:02;6.60;98.60
29363;DHT22;16349;53.672;10.014;2023-04-03T10:19:39;6.90;98.60
29363;DHT22;16349;53.672;10.014;2023-04-03T10:22:16;7.10;98.10
29363;DHT22;16349;53.672;10.014;2023-04-03T10:24:52;7.10;97.60
29363;DHT22;16349;53.672;10.014;2023-04-03T10:27:34;7.10;97.00
29363;DHT22;16349;53.672;10.014;2023-04-03T10:30:10;7.00;96.50
29363;DHT22;16349;53.672;10.014;2023-04-03T10:32:52;7.00;97.40
29363;DHT22;16349;53.672;10.014;2023-04-03T10:35:33;7.00;96.20
29363;DHT22;16349;53.672;10.014;2023-04-03T10:38:08;7.00;94.00
29363;DHT22;16349;53.672;10.014;2023-04-03T10:40:42;6.90;96.50
29363;DHT22;16349;53.672;10.014;2023-04-03T10:43:19;7.00;95.40
29363;DHT22;16349;53.672;10.014;2023-04-03T10:45:59;7.00;95.40
29363;DHT22;16349;53.672;10.014;2023-04-03T10:48:40;7.20;95.50
29363;DHT22;16349;53.672;10.014;2023-04-03T10:51:18;7.30;95.60
29363;DHT22;16349;53.672;10.014;2023-04-03T10:53:53;7.40;94.70
29363;DHT22;16349;53.672;10.014;2023-04-03T10:56:30;7.40;95.20
29363;DHT22;16349;53.672;10.014;2023-04-03T10:59:02;7.50;94.50
29363;DHT22;16349;53.672;10.014;2023-04-03T11:01:36;7.60;94.80
29363;DHT22;16349;53.672;10.014;2023-04-03T11:04:05;7.70;94.60
29363;DHT22;16349;53.672;10.014;2023-04-03T11:06:39;7.60;99.90
29363;DHT22;16349;53.672;10.014;2023-04-03T11:09:16;7.60;97.80
29363;DHT22;16349;53.672;10.014;2023-04-03T11:11:45;7.90;99.90
29363;DHT22;16349;53.672;10.014;2023-04-03T11:14:18;7.70;99.90
29363;DHT22;16349;53.672;10.014;2023-04-03T11:16:53;7.80;99.90
29363;DHT22;16349;53.672;10.014;2023-04-03T11:19:28;7.80;99.90
29363;DHT22;16349;53.672;10.014;2023-04-03T11:22:08;7.90;99.90
29363;DHT22;16349;53.672;10.014;2023-04-03T11:24:39;8.00;99.70
29363;DHT22;16349;53.672;10.014;2023-04-03T11:27:15;8.40;99.90
29363;DHT22;16349;53.672;10.014;2023-04-03T11:29:45;8.20;99.90
29363;DHT22;16349;53.672;10.014;2023-04-03T11:32:26;8.20;99.90
29363;DHT22;16349;53.672;10.014;2023-04-03T11:34:58;8.50;99.90
29363;DHT22;16349;53.672;10.014;2023-04-03T11:37:31;8.50;94.30
29363;DHT22;16349;53.672;10.014;2023-04-03T11:40:02;8.40;94.10
29363;DHT22;16349;53.672;10.014;2023-04-03T11:42:34;8.20;94.50
29363;DHT22;16349;53.672;10.014;2023-04-03T11:45:34;7.90;94.00
29363;DHT22;16349;53.672;10.014;2023-04-03T11:48:05;7.80;94.00
29363;DHT22;16349;53.672;10.014;2023-04-03T11:50:44;7.70;95.50
29363;DHT22;16349;53.672;10.014;2023-04-03T11:53:33;7.70;95.00
29363;DHT22;16349;53.672;10.014;2023-04-03T11:56:26;7.60;94.00
29363;DHT22;16349;53.672;10.014;2023-04-03T11:59:16;7.50;94.70
29363;DHT22;16349;53.672;10.014;2023-04-03T12:01:49;7.40;93.40
29363;DHT22;16349;53.672;10.014;2023-04-03T12:04:19;7.50;94.40
29363;DHT22;16349;53.672;10.014;2023-04-03T12:09:58;8.10;93.80
29363;DHT22;16349;53.672;10.014;2023-04-03T12:12:37;8.40;93.70
29363;DHT22;16349;53.672;10.014;2023-04-03T12:15:23;8.70;99.90
29363;DHT22;16349;53.672;10.014;2023-04-03T12:17:50;9.00;99.90
29363;DHT22;16349;53.672;10.014;2023-04-03T12:20:55;8.80;99.90
29363;DHT22;16349;53.672;10.014;2023-04-03T12:23:25;8.50;99.90
29363;DHT22;16349;53.672;10.014;2023-04-03T12:26:00;8.40;99.90
29363;DHT22;16349;53.672;10.014;2023-04-03T12:28:36;8.10;99.90
29363;DHT22;16349;53.672;10.014;2023-04-03T12:31:08;8.00;99.90
29363;DHT22;16349;53.672;10.014;2023-04-03T12:33:51;7.90;99.90
29363;DHT22;16349;53.672;10.014;2023-04-03T12:36:28;7.90;99.90
29363;DHT22;16349;53.672;10.014;2023-04-03T12:39:13;7.80;99.90
29363;DHT22;16349;53.672;10.014;2023-04-03T12:41:51;7.70;99.90
29363;DHT22;16349;53.672;10.014;2023-04-03T12:44:40;7.60;99.90
29363;DHT22;16349;53.672;10.014;2023-04-03T12:47:23;7.40;99.90
29363;DHT22;16349;53.672;10.014;2023-04-03T12:49:50;7.60;99.90
29363;DHT22;16349;53.672;10.014;2023-04-03T12:52:23;7.40;99.90
29363;DHT22;16349;53.672;10.014;2023-04-03T12:54:53;7.50;99.90
29363;DHT22;16349;53.672;10.014;2023-04-03T12:57:24;7.70;99.90
29363;DHT22;16349;53.672;10.014;2023-04-03T12:59:52;7.80;99.90
29363;DHT22;16349;53.672;10.014;2023-04-03T13:02:25;7.90;99.90
29363;DHT22;16349;53.672;10.014;2023-04-03T13:04:56;8.00;99.90
29363;DHT22;16349;53.672;10.014;2023-04-03T13:07:26;8.10;99.90
29363;DHT22;16349;53.672;10.014;2023-04-03T13:10:02;8.40;99.90
29363;DHT22;16349;53.672;10.014;2023-04-03T13:12:29;8.70;99.90
29363;DHT22;16349;53.672;10.014;2023-04-03T13:14:59;9.00;99.90
29363;DHT22;16349;53.672;10.014;2023-04-03T13:17:28;9.00;99.90
29363;DHT22;16349;53.672;10.014;2023-04-03T13:19:55;9.00;99.90
29363;DHT22;16349;53.672;10.014;2023-04-03T13:22:26;8.90;99.90
29363;DHT22;16349;53.672;10.014;2023-04-03T13:24:56;9.10;99.90
29363;DHT22;16349;53.672;10.014;2023-04-03T13:27:24;9.10;95.60
29363;DHT22;16349;53.672;10.014;2023-04-03T13:29:53;9.50;85.60
29363;DHT22;16349;53.672;10.014;2023-04-03T13:32:23;9.60;86.70
29363;DHT22;16349;53.672;10.014;2023-04-03T13:34:52;9.80;89.10
29363;DHT22;16349;53.672;10.014;2023-04-03T13:37:22;10.20;99.90
29363;DHT22;16349;53.672;10.014;2023-04-03T13:39:58;10.20;84.40
29363;DHT22;16349;53.672;10.014;2023-04-03T13:42:28;10.40;85.00
29363;DHT22;16349;53.672;10.014;2023-04-03T13:45:16;10.60;91.30
29363;DHT22;16349;53.672;10.014;2023-04-03T13:47:45;11.30;82.20
29363;DHT22;16349;53.672;10.014;2023-04-03T13:50:16;11.80;83.60
29363;DHT22;16349;53.672;10.014;2023-04-03T13:52:46;12.30;80.30
29363;DHT22;16349;53.672;10.014;2023-04-03T13:55:21;12.70;78.70
29363;DHT22;16349;53.672;10.014;2023-04-03T13:57:53;12.80;75.60
29363;DHT22;16349;53.672;10.014;2023-04-03T14:00:31;12.80;76.30
29363;DHT22;16349;53.672;10.014;2023-04-03T14:03:00;12.70;74.30
29363;DHT22;16349;53.672;10.014;2023-04-03T14:05:28;12.50;73.80
29363;DHT22;16349;53.672;10.014;2023-04-03T14:07:55;12.30;73.30
29363;DHT22;16349;53.672;10.014;2023-04-03T14:10:22;12.40;73.30
29363;DHT22;16349;53.672;10.014;2023-04-03T14:12:49;12.20;72.70
29363;DHT22;16349;53.672;10.014;2023-04-03T14:15:20;12.30;71.80
29363;DHT22;16349;53.672;10.014;2023-04-03T14:17:49;11.90;73.40
29363;DHT22;16349;53.672;10.014;2023-04-03T14:20:19;11.90;73.00
29363;DHT22;16349;53.672;10.014;2023-04-03T14:22:48;11.60;72.00
29363;DHT22;16349;53.672;10.014;2023-04-03T14:25:17;11.60;72.80
29363;DHT22;16349;53.672;10.014;2023-04-03T14:27:46;11.50;73.50
29363;DHT22;16349;53.672;10.014;2023-04-03T14:30:16;11.90;73.70
29363;DHT22;16349;53.672;10.014;2023-04-03T14:32:44;12.10;73.40
29363;DHT22;16349;53.672;10.014;2023-04-03T14:35:12;12.50;71.90
29363;DHT22;16349;53.672;10.014;2023-04-03T14:37:39;12.80;71.50
29363;DHT22;16349;53.672;10.014;2023-04-03T14:40:11;12.70;70.80
29363;DHT22;16349;53.672;10.014;2023-04-03T14:42:39;12.00;71.40
29363;DHT22;16349;53.672;10.014;2023-04-03T14:45:07;11.30;73.40
29363;DHT22;16349;53.672;10.014;2023-04-03T14:47:39;10.80;74.80
29363;DHT22;16349;53.672;10.014;2023-04-03T14:50:11;11.40;74.80
29363;DHT22;16349;53.672;10.014;2023-04-03T14:52:40;11.90;74.00
29363;DHT22;16349;53.672;10.014;2023-04-03T14:55:09;12.50;72.60
29363;DHT22;16349;53.672;10.014;2023-04-03T14:57:38;12.70;71.40
29363;DHT22;16349;53.672;10.014;2023-04-03T15:00:11;12.30;72.60
29363;DHT22;16349;53.672;10.014;2023-04-03T15:02:39;12.30;72.40
29363;DHT22;16349;53.672;10.014;2023-04-03T15:05:08;12.10;72.80
29363;DHT22;16349;53.672;10.014;2023-04-03T15:07:39;11.90;74.20
29363;DHT22;16349;53.672;10.014;2023-04-03T15:10:19;11.20;75.90
29363;DHT22;16349;53.672;10.014;2023-04-03T15:12:47;10.80;77.70
29363;DHT22;16349;53.672;10.014;2023-04-03T15:15:15;10.60;79.40
29363;DHT22;16349;53.672;10.014;2023-04-03T15:17:43;10.90;79.80
29363;DHT22;16349;53.672;10.014;2023-04-03T15:20:14;11.40;77.60
29363;DHT22;16349;53.672;10.014;2023-04-03T15:22:41;11.90;77.20
29363;DHT22;16349;53.672;10.014;2023-04-03T15:25:09;11.60;77.40
29363;DHT22;16349;53.672;10.014;2023-04-03T15:27:38;11.10;78.80
29363;DHT22;16349;53.672;10.014;2023-04-03T15:30:06;11.30;79.40
29363;DHT22;16349;53.672;10.014;2023-04-03T15:32:33;12.10;78.70
29363;DHT22;16349;53.672;10.014;2023-04-03T15:35:00;13.00;76.90
29363;DHT22;16349;53.672;10.014;2023-04-03T15:37:28;13.20;74.30
29363;DHT22;16349;53.672;10.014;2023-04-03T15:39:54;13.00;73.30
29363;DHT22;16349;53.672;10.014;2023-04-03T15:42:21;11.90;74.90
29363;DHT22;16349;53.672;10.014;2023-04-03T15:44:49;11.40;78.10
29363;DHT22;16349;53.672;10.014;2023-04-03T15:47:16;11.50;78.80
29363;DHT22;16349;53.672;10.014;2023-04-03T15:49:43;11.80;77.30
29363;DHT22;16349;53.672;10.014;2023-04-03T15:52:10;11.30;77.40
29363;DHT22;16349;53.672;10.014;2023-04-03T15:54:37;10.60;78.10